sensor_id;sensor_type;location;lat;lon;timestamp;P1;durP1;ratioP1;P2;durP2;ratioP2
41921;SDS011;27609;51.002;5.354;2022-09-27T00:02:03;6.85;;;1.90;;
41921;SDS011;27609;51.002;5.354;2022-09-27T00:04:29;9.25;;;2.70;;
41921;SDS011;27609;51.002;5.354;2022-09-27T00:06:54;5.00;;;1.40;;
41921;SDS011;27609;51.002;5.354;2022-09-27T00:09:20;5.10;;;1.40;;
41921;SDS011;27609;51.002;5.354;2022-09-27T00:11:46;3.40;;;1.40;;
41921;SDS011;27609;51.002;5.354;2022-09-27T00:14:12;3.88;;;1.33;;
41921;SDS011;27609;51.002;5.354;2022-09-27T00:16:40;6.47;;;1.67;;
41921;SDS011;27609;51.002;5.354;2022-09-27T00:19:09;6.50;;;1.45;;
41921;SDS011;27609;51.002;5.354;2022-09-27T00:21:38;10.73;;;2.63;;
41921;SDS011;27609;51.002;5.354;2022-09-27T00:24:04;8.32;;;2.08;;
41921;SDS011;27609;51.002;5.354;2022-09-27T00:26:30;4.93;;;1.70;;
41921;SDS011;27609;51.002;5.354;2022-09-27T00:28:56;8.38;;;1.85;;
41921;SDS011;27609;51.002;5.354;2022-09-27T00:31:27;4.85;;;2.63;;
41921;SDS011;27609;51.002;5.354;2022-09-27T00:33:54;7.40;;;2.00;;
41921;SDS011;27609;51.002;5.354;2022-09-27T00:36:21;4.75;;;2.00;;
41921;SDS011;27609;51.002;5.354;2022-09-27T00:38:48;9.77;;;3.08;;
41921;SDS011;27609;51.002;5.354;2022-09-27T00:41:15;3.90;;;1.50;;
41921;SDS011;27609;51.002;5.354;2022-09-27T00:43:51;4.13;;;1.92;;
41921;SDS011;27609;51.002;5.354;2022-09-27T00:46:40;7.22;;;2.35;;
41921;SDS011;27609;51.002;5.354;2022-09-27T00:51:44;6.75;;;1.38;;
41921;SDS011;27609;51.002;5.354;2022-09-27T00:54:15;2.50;;;1.30;;
41921;SDS011;27609;51.002;5.354;2022-09-27T00:56:43;7.90;;;1.33;;
41921;SDS011;27609;51.002;5.354;2022-09-27T00:59:11;5.55;;;1.42;;
41921;SDS011;27609;51.002;5.354;2022-09-27T01:01:41;9.35;;;2.42;;
41921;SDS011;27609;51.002;5.354;2022-09-27T01:04:08;2.78;;;1.20;;
41921;SDS011;27609;51.002;5.354;2022-09-27T01:06:36;3.08;;;0.95;;
41921;SDS011;27609;51.002;5.354;2022-09-27T01:09:06;5.13;;;1.63;;
41921;SDS011;27609;51.002;5.354;2022-09-27T01:14:54;5.65;;;1.20;;
41921;SDS011;27609;51.002;5.354;2022-09-27T01:32:48;3.97;;;1.38;;
41921;SDS011;27609;51.002;5.354;2022-09-27T01:35:49;3.13;;;1.15;;
41921;SDS011;27609;51.002;5.354;2022-09-27T01:38:16;5.80;;;1.08;;
41921;SDS011;27609;51.002;5.354;2022-09-27T01:43:38;10.02;;;1.80;;
41921;SDS011;27609;51.002;5.354;2022-09-27T01:46:20;3.15;;;1.42;;
41921;SDS011;27609;51.002;5.354;2022-09-27T01:49:07;7.05;;;2.10;;
41921;SDS011;27609;51.002;5.354;2022-09-27T01:51:51;7.28;;;1.50;;
41921;SDS011;27609;51.002;5.354;2022-09-27T01:54:22;8.13;;;1.75;;
41921;SDS011;27609;51.002;5.354;2022-09-27T01:56:54;7.03;;;1.77;;
41921;SDS011;27609;51.002;5.354;2022-09-27T01:59:23;2.25;;;1.23;;
41921;SDS011;27609;51.002;5.354;2022-09-27T02:02:02;4.65;;;1.77;;
41921;SDS011;27609;51.002;5.354;2022-09-27T02:04:32;6.50;;;1.65;;
41921;SDS011;27609;51.002;5.354;2022-09-27T02:07:26;6.00;;;1.25;;
41921;SDS011;27609;51.002;5.354;2022-09-27T02:10:02;3.72;;;0.95;;
41921;SDS011;27609;51.002;5.354;2022-09-27T02:12:34;4.72;;;1.10;;
41921;SDS011;27609;51.002;5.354;2022-09-27T02:15:10;3.03;;;1.25;;
41921;SDS011;27609;51.002;5.354;2022-09-27T02:20:24;5.50;;;1.08;;
41921;SDS011;27609;51.002;5.354;2022-09-27T02:25:25;3.33;;;1.27;;
41921;SDS011;27609;51.002;5.354;2022-09-27T02:28:00;5.03;;;1.98;;
41921;SDS011;27609;51.002;5.354;2022-09-27T02:30:40;7.57;;;2.45;;
41921;SDS011;27609;51.002;5.354;2022-09-27T02:33:06;5.75;;;1.67;;
41921;SDS011;27609;51.002;5.354;2022-09-27T02:35:33;6.15;;;1.50;;
41921;SDS011;27609;51.002;5.354;2022-09-27T02:37:59;3.00;;;1.52;;
41921;SDS011;27609;51.002;5.354;2022-09-27T02:40:29;5.78;;;1.80;;
41921;SDS011;27609;51.002;5.354;2022-09-27T02:42:59;4.18;;;2.00;;
41921;SDS011;27609;51.002;5.354;2022-09-27T02:45:36;3.65;;;1.67;;
41921;SDS011;27609;51.002;5.354;2022-09-27T02:54:06;5.28;;;1.23;;
41921;SDS011;27609;51.002;5.354;2022-09-27T03:04:36;3.00;;;1.20;;
41921;SDS011;27609;51.002;5.354;2022-09-27T03:07:18;3.83;;;1.83;;
41921;SDS011;27609;51.002;5.354;2022-09-27T03:09:46;1.95;;;1.63;;
41921;SDS011;27609;51.002;5.354;2022-09-27T03:12:13;5.85;;;1.92;;
41921;SDS011;27609;51.002;5.354;2022-09-27T03:14:46;6.65;;;1.60;;
41921;SDS011;27609;51.002;5.354;2022-09-27T03:17:13;7.45;;;2.08;;
41921;SDS011;27609;51.002;5.354;2022-09-27T03:19:38;8.40;;;2.35;;
41921;SDS011;27609;51.002;5.354;2022-09-27T03:22:04;5.63;;;1.67;;
41921;SDS011;27609;51.002;5.354;2022-09-27T03:24:30;7.55;;;2.25;;
41921;SDS011;27609;51.002;5.354;2022-09-27T03:26:58;10.82;;;1.95;;
41921;SDS011;27609;51.002;5.354;2022-09-27T03:29:24;3.63;;;1.75;;
41921;SDS011;27609;51.002;5.354;2022-09-27T03:31:49;3.63;;;1.95;;
41921;SDS011;27609;51.002;5.354;2022-09-27T03:34:18;9.80;;;2.85;;
41921;SDS011;27609;51.002;5.354;2022-09-27T03:36:44;4.95;;;1.63;;
41921;SDS011;27609;51.002;5.354;2022-09-27T03:39:10;8.50;;;1.73;;
41921;SDS011;27609;51.002;5.354;2022-09-27T03:41:38;6.15;;;1.65;;
41921;SDS011;27609;51.002;5.354;2022-09-27T03:44:03;6.72;;;1.88;;
41921;SDS011;27609;51.002;5.354;2022-09-27T03:46:29;6.30;;;1.63;;
41921;SDS011;27609;51.002;5.354;2022-09-27T03:48:55;3.97;;;1.23;;
41921;SDS011;27609;51.002;5.354;2022-09-27T03:51:20;4.60;;;1.20;;
41921;SDS011;27609;51.002;5.354;2022-09-27T03:53:46;2.65;;;1.30;;
41921;SDS011;27609;51.002;5.354;2022-09-27T03:56:13;8.00;;;1.13;;
41921;SDS011;27609;51.002;5.354;2022-09-27T03:58:38;5.57;;;1.48;;
41921;SDS011;27609;51.002;5.354;2022-09-27T04:01:04;2.53;;;1.00;;
41921;SDS011;27609;51.002;5.354;2022-09-27T04:03:30;3.67;;;1.10;;
41921;SDS011;27609;51.002;5.354;2022-09-27T04:05:55;3.08;;;1.13;;
41921;SDS011;27609;51.002;5.354;2022-09-27T04:08:21;4.43;;;1.20;;
41921;SDS011;27609;51.002;5.354;2022-09-27T04:10:47;4.45;;;1.20;;
41921;SDS011;27609;51.002;5.354;2022-09-27T04:13:13;6.95;;;1.50;;
41921;SDS011;27609;51.002;5.354;2022-09-27T04:15:39;2.85;;;1.15;;
41921;SDS011;27609;51.002;5.354;2022-09-27T04:18:05;4.47;;;1.00;;
41921;SDS011;27609;51.002;5.354;2022-09-27T04:20:32;5.78;;;1.40;;
41921;SDS011;27609;51.002;5.354;2022-09-27T04:22:58;4.45;;;1.00;;
41921;SDS011;27609;51.002;5.354;2022-09-27T04:25:24;3.17;;;0.90;;
41921;SDS011;27609;51.002;5.354;2022-09-27T04:27:50;7.63;;;0.93;;
41921;SDS011;27609;51.002;5.354;2022-09-27T04:30:18;3.60;;;1.13;;
41921;SDS011;27609;51.002;5.354;2022-09-27T04:32:45;5.22;;;1.25;;
41921;SDS011;27609;51.002;5.354;2022-09-27T04:35:12;9.02;;;1.33;;
41921;SDS011;27609;51.002;5.354;2022-09-27T04:37:58;1.90;;;1.60;;
41921;SDS011;27609;51.002;5.354;2022-09-27T04:40:24;3.55;;;1.27;;
41921;SDS011;27609;51.002;5.354;2022-09-27T04:42:50;4.95;;;1.02;;
41921;SDS011;27609;51.002;5.354;2022-09-27T04:45:17;2.75;;;0.50;;
41921;SDS011;27609;51.002;5.354;2022-09-27T04:47:43;4.88;;;0.68;;
41921;SDS011;27609;51.002;5.354;2022-09-27T04:50:10;3.30;;;0.43;;
41921;SDS011;27609;51.002;5.354;2022-09-27T04:52:37;4.85;;;0.60;;
41921;SDS011;27609;51.002;5.354;2022-09-27T04:55:03;5.53;;;0.70;;
41921;SDS011;27609;51.002;5.354;2022-09-27T04:57:29;0.47;;;0.40;;
41921;SDS011;27609;51.002;5.354;2022-09-27T04:59:55;0.85;;;0.60;;
41921;SDS011;27609;51.002;5.354;2022-09-27T05:02:23;1.95;;;0.50;;
41921;SDS011;27609;51.002;5.354;2022-09-27T05:04:51;1.67;;;0.70;;
41921;SDS011;27609;51.002;5.354;2022-09-27T05:07:17;5.53;;;1.30;;
41921;SDS011;27609;51.002;5.354;2022-09-27T05:09:42;2.03;;;0.80;;
41921;SDS011;27609;51.002;5.354;2022-09-27T05:12:09;2.47;;;0.57;;
41921;SDS011;27609;51.002;5.354;2022-09-27T05:14:37;1.33;;;0.55;;
41921;SDS011;27609;51.002;5.354;2022-09-27T05:17:03;1.92;;;0.73;;
41921;SDS011;27609;51.002;5.354;2022-09-27T05:19:31;4.75;;;0.60;;
41921;SDS011;27609;51.002;5.354;2022-09-27T05:21:58;2.28;;;0.68;;
41921;SDS011;27609;51.002;5.354;2022-09-27T05:24:23;2.85;;;0.32;;
41921;SDS011;27609;51.002;5.354;2022-09-27T05:26:49;3.10;;;0.80;;
41921;SDS011;27609;51.002;5.354;2022-09-27T05:29:15;4.50;;;1.02;;
41921;SDS011;27609;51.002;5.354;2022-09-27T05:31:41;5.47;;;0.77;;
41921;SDS011;27609;51.002;5.354;2022-09-27T05:34:07;4.85;;;1.33;;
41921;SDS011;27609;51.002;5.354;2022-09-27T05:36:36;2.35;;;0.60;;
41921;SDS011;27609;51.002;5.354;2022-09-27T05:39:02;5.47;;;0.93;;
41921;SDS011;27609;51.002;5.354;2022-09-27T05:41:28;4.22;;;1.08;;
41921;SDS011;27609;51.002;5.354;2022-09-27T05:43:56;3.50;;;0.90;;
41921;SDS011;27609;51.002;5.354;2022-09-27T05:46:22;4.50;;;1.40;;
41921;SDS011;27609;51.002;5.354;2022-09-27T05:48:48;4.70;;;1.50;;
41921;SDS011;27609;51.002;5.354;2022-09-27T05:51:14;5.00;;;1.70;;
41921;SDS011;27609;51.002;5.354;2022-09-27T05:53:39;2.35;;;0.80;;
41921;SDS011;27609;51.002;5.354;2022-09-27T05:56:05;3.78;;;1.05;;
41921;SDS011;27609;51.002;5.354;2022-09-27T05:58:31;2.63;;;1.00;;
41921;SDS011;27609;51.002;5.354;2022-09-27T06:00:58;4.35;;;1.08;;
41921;SDS011;27609;51.002;5.354;2022-09-27T06:03:24;4.05;;;0.90;;
41921;SDS011;27609;51.002;5.354;2022-09-27T06:05:50;5.07;;;1.40;;
41921;SDS011;27609;51.002;5.354;2022-09-27T06:08:16;4.50;;;1.58;;
41921;SDS011;27609;51.002;5.354;2022-09-27T06:10:44;3.72;;;1.00;;
41921;SDS011;27609;51.002;5.354;2022-09-27T06:13:11;2.15;;;0.90;;
41921;SDS011;27609;51.002;5.354;2022-09-27T06:15:38;5.22;;;1.92;;
41921;SDS011;27609;51.002;5.354;2022-09-27T06:18:09;4.82;;;1.58;;
41921;SDS011;27609;51.002;5.354;2022-09-27T06:20:36;4.40;;;1.73;;
41921;SDS011;27609;51.002;5.354;2022-09-27T06:23:12;3.88;;;2.30;;
41921;SDS011;27609;51.002;5.354;2022-09-27T06:25:40;6.70;;;1.95;;
41921;SDS011;27609;51.002;5.354;2022-09-27T06:28:06;6.10;;;2.00;;
41921;SDS011;27609;51.002;5.354;2022-09-27T06:30:36;8.55;;;2.40;;
41921;SDS011;27609;51.002;5.354;2022-09-27T06:33:06;5.35;;;3.05;;
41921;SDS011;27609;51.002;5.354;2022-09-27T06:35:34;4.10;;;2.30;;
41921;SDS011;27609;51.002;5.354;2022-09-27T06:38:04;4.93;;;2.40;;
41921;SDS011;27609;51.002;5.354;2022-09-27T06:40:33;8.73;;;2.90;;
41921;SDS011;27609;51.002;5.354;2022-09-27T06:43:06;6.95;;;2.05;;
41921;SDS011;27609;51.002;5.354;2022-09-27T06:45:33;4.88;;;2.00;;
41921;SDS011;27609;51.002;5.354;2022-09-27T06:48:01;6.00;;;2.22;;
41921;SDS011;27609;51.002;5.354;2022-09-27T06:50:28;3.58;;;1.35;;
41921;SDS011;27609;51.002;5.354;2022-09-27T06:55:24;8.30;;;2.40;;
41921;SDS011;27609;51.002;5.354;2022-09-27T06:57:56;9.73;;;3.25;;
41921;SDS011;27609;51.002;5.354;2022-09-27T07:00:41;5.95;;;2.90;;
41921;SDS011;27609;51.002;5.354;2022-09-27T07:03:10;3.25;;;2.70;;
41921;SDS011;27609;51.002;5.354;2022-09-27T07:05:38;7.53;;;3.50;;
41921;SDS011;27609;51.002;5.354;2022-09-27T07:08:05;6.60;;;2.85;;
41921;SDS011;27609;51.002;5.354;2022-09-27T07:10:33;8.77;;;3.55;;
41921;SDS011;27609;51.002;5.354;2022-09-27T07:15:32;4.28;;;3.00;;
41921;SDS011;27609;51.002;5.354;2022-09-27T07:18:02;3.80;;;2.30;;
41921;SDS011;27609;51.002;5.354;2022-09-27T07:20:29;6.88;;;2.70;;
41921;SDS011;27609;51.002;5.354;2022-09-27T07:22:56;6.53;;;3.20;;
41921;SDS011;27609;51.002;5.354;2022-09-27T07:25:25;4.40;;;3.20;;
41921;SDS011;27609;51.002;5.354;2022-09-27T07:27:51;4.63;;;3.15;;
41921;SDS011;27609;51.002;5.354;2022-09-27T07:30:17;3.15;;;2.85;;
41921;SDS011;27609;51.002;5.354;2022-09-27T07:32:43;6.30;;;2.80;;
41921;SDS011;27609;51.002;5.354;2022-09-27T07:35:10;4.68;;;3.08;;
41921;SDS011;27609;51.002;5.354;2022-09-27T07:37:38;5.40;;;3.10;;
41921;SDS011;27609;51.002;5.354;2022-09-27T07:40:05;5.65;;;2.88;;
41921;SDS011;27609;51.002;5.354;2022-09-27T07:42:33;4.68;;;3.30;;
41921;SDS011;27609;51.002;5.354;2022-09-27T07:45:03;4.05;;;2.83;;
41921;SDS011;27609;51.002;5.354;2022-09-27T07:47:30;3.92;;;2.83;;
41921;SDS011;27609;51.002;5.354;2022-09-27T07:49:56;5.78;;;3.50;;
41921;SDS011;27609;51.002;5.354;2022-09-27T07:52:22;4.80;;;2.95;;
41921;SDS011;27609;51.002;5.354;2022-09-27T07:54:48;6.07;;;3.88;;
41921;SDS011;27609;51.002;5.354;2022-09-27T07:57:14;4.05;;;3.33;;
41921;SDS011;27609;51.002;5.354;2022-09-27T07:59:40;10.35;;;2.97;;
41921;SDS011;27609;51.002;5.354;2022-09-27T08:02:09;4.63;;;3.13;;
41921;SDS011;27609;51.002;5.354;2022-09-27T08:04:39;5.72;;;3.28;;
41921;SDS011;27609;51.002;5.354;2022-09-27T08:07:06;3.53;;;2.63;;
41921;SDS011;27609;51.002;5.354;2022-09-27T08:09:32;2.50;;;2.30;;
41921;SDS011;27609;51.002;5.354;2022-09-27T08:11:57;3.22;;;2.92;;
41921;SDS011;27609;51.002;5.354;2022-09-27T08:14:23;5.65;;;2.70;;
41921;SDS011;27609;51.002;5.354;2022-09-27T08:16:49;7.25;;;2.40;;
41921;SDS011;27609;51.002;5.354;2022-09-27T08:19:16;5.32;;;3.08;;
41921;SDS011;27609;51.002;5.354;2022-09-27T08:21:44;5.60;;;2.30;;
41921;SDS011;27609;51.002;5.354;2022-09-27T08:24:10;7.40;;;2.33;;
41921;SDS011;27609;51.002;5.354;2022-09-27T08:26:36;8.18;;;3.92;;
41921;SDS011;27609;51.002;5.354;2022-09-27T08:29:02;4.20;;;2.72;;
41921;SDS011;27609;51.002;5.354;2022-09-27T08:31:30;5.30;;;2.72;;
41921;SDS011;27609;51.002;5.354;2022-09-27T08:33:55;6.70;;;2.70;;
41921;SDS011;27609;51.002;5.354;2022-09-27T08:36:22;2.85;;;2.65;;
41921;SDS011;27609;51.002;5.354;2022-09-27T08:38:51;5.53;;;3.40;;
41921;SDS011;27609;51.002;5.354;2022-09-27T08:41:25;5.85;;;2.97;;
41921;SDS011;27609;51.002;5.354;2022-09-27T08:49:31;12.35;;;3.30;;
41921;SDS011;27609;51.002;5.354;2022-09-27T08:52:05;4.68;;;3.00;;
41921;SDS011;27609;51.002;5.354;2022-09-27T08:54:37;6.95;;;3.25;;
41921;SDS011;27609;51.002;5.354;2022-09-27T08:57:05;5.68;;;3.20;;
41921;SDS011;27609;51.002;5.354;2022-09-27T08:59:40;5.38;;;3.05;;
41921;SDS011;27609;51.002;5.354;2022-09-27T09:02:13;7.65;;;3.30;;
41921;SDS011;27609;51.002;5.354;2022-09-27T09:04:45;4.18;;;2.85;;
41921;SDS011;27609;51.002;5.354;2022-09-27T09:09:52;11.05;;;4.10;;
41921;SDS011;27609;51.002;5.354;2022-09-27T09:13:08;4.72;;;3.00;;
41921;SDS011;27609;51.002;5.354;2022-09-27T09:34:12;5.60;;;2.95;;
41921;SDS011;27609;51.002;5.354;2022-09-27T09:36:44;4.78;;;3.20;;
41921;SDS011;27609;51.002;5.354;2022-09-27T09:39:19;6.60;;;3.00;;
41921;SDS011;27609;51.002;5.354;2022-09-27T09:44:45;4.68;;;3.63;;
41921;SDS011;27609;51.002;5.354;2022-09-27T09:47:34;8.27;;;3.72;;
41921;SDS011;27609;51.002;5.354;2022-09-27T09:50:25;5.05;;;3.47;;
41921;SDS011;27609;51.002;5.354;2022-09-27T09:52:58;7.32;;;3.53;;
41921;SDS011;27609;51.002;5.354;2022-09-27T09:55:36;5.35;;;3.63;;
41921;SDS011;27609;51.002;5.354;2022-09-27T09:58:23;4.13;;;2.90;;
41921;SDS011;27609;51.002;5.354;2022-09-27T10:01:54;6.45;;;3.20;;
41921;SDS011;27609;51.002;5.354;2022-09-27T10:04:01;6.63;;;3.15;;
41921;SDS011;27609;51.002;5.354;2022-09-27T10:06:27;5.25;;;3.72;;
41921;SDS011;27609;51.002;5.354;2022-09-27T10:08:54;7.63;;;3.25;;
41921;SDS011;27609;51.002;5.354;2022-09-27T10:11:21;3.40;;;2.38;;
41921;SDS011;27609;51.002;5.354;2022-09-27T10:13:50;7.88;;;2.20;;
41921;SDS011;27609;51.002;5.354;2022-09-27T10:16:17;3.58;;;1.90;;
41921;SDS011;27609;51.002;5.354;2022-09-27T10:18:44;5.47;;;2.33;;
41921;SDS011;27609;51.002;5.354;2022-09-27T10:21:14;3.75;;;1.95;;
41921;SDS011;27609;51.002;5.354;2022-09-27T10:24:01;3.33;;;1.92;;
41921;SDS011;27609;51.002;5.354;2022-09-27T10:26:37;2.78;;;1.63;;
41921;SDS011;27609;51.002;5.354;2022-09-27T10:31:40;4.75;;;1.70;;
41921;SDS011;27609;51.002;5.354;2022-09-27T10:34:19;6.43;;;1.40;;
41921;SDS011;27609;51.002;5.354;2022-09-27T10:37:03;2.15;;;1.40;;
41921;SDS011;27609;51.002;5.354;2022-09-27T10:39:35;2.72;;;1.48;;
41921;SDS011;27609;51.002;5.354;2022-09-27T10:42:03;2.15;;;1.55;;
41921;SDS011;27609;51.002;5.354;2022-09-27T10:44:56;2.88;;;1.88;;
41921;SDS011;27609;51.002;5.354;2022-09-27T10:47:22;2.72;;;2.50;;
41921;SDS011;27609;51.002;5.354;2022-09-27T10:49:50;6.63;;;2.35;;
41921;SDS011;27609;51.002;5.354;2022-09-27T10:52:22;3.90;;;1.60;;
41921;SDS011;27609;51.002;5.354;2022-09-27T10:57:22;1.98;;;1.38;;
41921;SDS011;27609;51.002;5.354;2022-09-27T10:59:52;2.45;;;1.23;;
41921;SDS011;27609;51.002;5.354;2022-09-27T11:02:35;1.67;;;1.58;;
41921;SDS011;27609;51.002;5.354;2022-09-27T11:05:03;2.25;;;1.27;;
41921;SDS011;27609;51.002;5.354;2022-09-27T11:07:46;4.13;;;2.00;;
41921;SDS011;27609;51.002;5.354;2022-09-27T11:10:21;3.55;;;1.20;;
41921;SDS011;27609;51.002;5.354;2022-09-27T11:18:20;0.90;;;0.68;;
41921;SDS011;27609;51.002;5.354;2022-09-27T11:21:21;1.77;;;0.82;;
41921;SDS011;27609;51.002;5.354;2022-09-27T11:37:47;1.67;;;0.77;;
41921;SDS011;27609;51.002;5.354;2022-09-27T11:40:25;3.60;;;0.75;;
41921;SDS011;27609;51.002;5.354;2022-09-27T11:43:27;2.50;;;0.57;;
41921;SDS011;27609;51.002;5.354;2022-09-27T11:46:21;2.13;;;1.30;;
41921;SDS011;27609;51.002;5.354;2022-09-27T12:08:04;2.97;;;1.80;;
41921;SDS011;27609;51.002;5.354;2022-09-27T12:10:16;1.63;;;1.52;;
41921;SDS011;27609;51.002;5.354;2022-09-27T12:12:43;4.97;;;1.92;;
41921;SDS011;27609;51.002;5.354;2022-09-27T12:15:18;3.67;;;2.10;;
41921;SDS011;27609;51.002;5.354;2022-09-27T12:17:47;2.67;;;1.40;;
41921;SDS011;27609;51.002;5.354;2022-09-27T12:20:20;3.72;;;1.55;;
41921;SDS011;27609;51.002;5.354;2022-09-27T12:22:51;3.28;;;1.40;;
41921;SDS011;27609;51.002;5.354;2022-09-27T12:25:45;3.25;;;1.45;;
41921;SDS011;27609;51.002;5.354;2022-09-27T12:28:20;4.43;;;1.80;;
41921;SDS011;27609;51.002;5.354;2022-09-27T12:31:11;5.57;;;1.63;;
41921;SDS011;27609;51.002;5.354;2022-09-27T12:36:35;4.22;;;2.67;;
41921;SDS011;27609;51.002;5.354;2022-09-27T12:41:56;4.63;;;2.05;;
41921;SDS011;27609;51.002;5.354;2022-09-27T12:44:35;15.18;;;2.58;;
41921;SDS011;27609;51.002;5.354;2022-09-27T12:47:06;4.15;;;1.90;;
41921;SDS011;27609;51.002;5.354;2022-09-27T12:50:11;1.88;;;1.15;;
41921;SDS011;27609;51.002;5.354;2022-09-27T13:12:24;6.32;;;1.83;;
41921;SDS011;27609;51.002;5.354;2022-09-27T13:17:48;1.45;;;1.30;;
41921;SDS011;27609;51.002;5.354;2022-09-27T13:22:56;3.00;;;1.60;;
41921;SDS011;27609;51.002;5.354;2022-09-27T13:50:03;3.72;;;1.63;;
41921;SDS011;27609;51.002;5.354;2022-09-27T13:52:44;2.03;;;1.30;;
41921;SDS011;27609;51.002;5.354;2022-09-27T14:01:02;7.40;;;4.03;;
41921;SDS011;27609;51.002;5.354;2022-09-27T14:03:36;6.18;;;2.47;;
41921;SDS011;27609;51.002;5.354;2022-09-27T14:08:43;6.22;;;2.15;;
41921;SDS011;27609;51.002;5.354;2022-09-27T14:11:13;7.60;;;3.08;;
41921;SDS011;27609;51.002;5.354;2022-09-27T14:13:42;5.32;;;1.98;;
41921;SDS011;27609;51.002;5.354;2022-09-27T14:16:13;5.95;;;1.75;;
41921;SDS011;27609;51.002;5.354;2022-09-27T14:18:42;3.53;;;1.50;;
41921;SDS011;27609;51.002;5.354;2022-09-27T14:26:50;4.90;;;1.55;;
41921;SDS011;27609;51.002;5.354;2022-09-27T14:32:26;1.77;;;1.17;;
41921;SDS011;27609;51.002;5.354;2022-09-27T14:35:06;5.07;;;2.58;;
41921;SDS011;27609;51.002;5.354;2022-09-27T14:38:03;9.82;;;1.85;;
41921;SDS011;27609;51.002;5.354;2022-09-27T14:43:03;3.05;;;1.80;;
41921;SDS011;27609;51.002;5.354;2022-09-27T14:45:34;4.90;;;1.95;;
41921;SDS011;27609;51.002;5.354;2022-09-27T14:48:03;8.05;;;3.08;;
41921;SDS011;27609;51.002;5.354;2022-09-27T14:50:51;5.50;;;2.65;;
41921;SDS011;27609;51.002;5.354;2022-09-27T14:53:23;5.70;;;4.22;;
41921;SDS011;27609;51.002;5.354;2022-09-27T14:55:50;6.07;;;1.83;;
41921;SDS011;27609;51.002;5.354;2022-09-27T14:58:20;4.63;;;2.22;;
41921;SDS011;27609;51.002;5.354;2022-09-27T15:00:50;2.65;;;1.48;;
41921;SDS011;27609;51.002;5.354;2022-09-27T15:06:10;4.45;;;2.13;;
41921;SDS011;27609;51.002;5.354;2022-09-27T15:08:36;1.98;;;1.33;;
41921;SDS011;27609;51.002;5.354;2022-09-27T15:11:03;11.15;;;8.70;;
41921;SDS011;27609;51.002;5.354;2022-09-27T15:13:31;11.65;;;2.35;;
41921;SDS011;27609;51.002;5.354;2022-09-27T15:16:00;5.55;;;1.48;;
41921;SDS011;27609;51.002;5.354;2022-09-27T15:21:00;3.25;;;1.98;;
41921;SDS011;27609;51.002;5.354;2022-09-27T15:23:27;11.52;;;5.15;;
41921;SDS011;27609;51.002;5.354;2022-09-27T15:26:01;9.70;;;4.65;;
41921;SDS011;27609;51.002;5.354;2022-09-27T15:28:27;5.22;;;1.85;;
41921;SDS011;27609;51.002;5.354;2022-09-27T15:30:54;6.65;;;1.98;;
41921;SDS011;27609;51.002;5.354;2022-09-27T15:33:25;5.50;;;1.83;;
41921;SDS011;27609;51.002;5.354;2022-09-27T15:35:55;5.15;;;2.20;;
41921;SDS011;27609;51.002;5.354;2022-09-27T15:38:29;8.32;;;3.47;;
41921;SDS011;27609;51.002;5.354;2022-09-27T15:41:07;7.22;;;3.25;;
41921;SDS011;27609;51.002;5.354;2022-09-27T15:46:49;28.45;;;14.38;;
41921;SDS011;27609;51.002;5.354;2022-09-27T15:51:51;4.78;;;2.33;;
41921;SDS011;27609;51.002;5.354;2022-09-27T15:54:19;5.63;;;2.30;;
41921;SDS011;27609;51.002;5.354;2022-09-27T15:56:46;4.30;;;1.95;;
41921;SDS011;27609;51.002;5.354;2022-09-27T15:59:23;3.85;;;2.00;;
41921;SDS011;27609;51.002;5.354;2022-09-27T16:01:57;7.38;;;3.33;;
41921;SDS011;27609;51.002;5.354;2022-09-27T16:04:29;9.55;;;3.65;;
41921;SDS011;27609;51.002;5.354;2022-09-27T16:06:56;6.70;;;4.88;;
41921;SDS011;27609;51.002;5.354;2022-09-27T16:09:25;11.13;;;3.42;;
41921;SDS011;27609;51.002;5.354;2022-09-27T16:11:51;4.95;;;2.47;;
41921;SDS011;27609;51.002;5.354;2022-09-27T16:14:16;7.13;;;2.75;;
41921;SDS011;27609;51.002;5.354;2022-09-27T16:16:45;6.80;;;2.97;;
41921;SDS011;27609;51.002;5.354;2022-09-27T16:19:15;6.82;;;2.83;;
41921;SDS011;27609;51.002;5.354;2022-09-27T16:21:41;9.30;;;2.67;;
41921;SDS011;27609;51.002;5.354;2022-09-27T16:24:08;6.50;;;2.45;;
41921;SDS011;27609;51.002;5.354;2022-09-27T16:26:35;9.10;;;2.22;;
41921;SDS011;27609;51.002;5.354;2022-09-27T16:29:00;6.20;;;2.85;;
41921;SDS011;27609;51.002;5.354;2022-09-27T16:31:27;4.85;;;3.40;;
41921;SDS011;27609;51.002;5.354;2022-09-27T16:33:53;7.10;;;3.45;;
41921;SDS011;27609;51.002;5.354;2022-09-27T16:36:19;4.35;;;2.60;;
41921;SDS011;27609;51.002;5.354;2022-09-27T16:38:48;8.73;;;2.40;;
41921;SDS011;27609;51.002;5.354;2022-09-27T16:41:16;5.45;;;2.65;;
41921;SDS011;27609;51.002;5.354;2022-09-27T16:43:43;9.77;;;4.80;;
41921;SDS011;27609;51.002;5.354;2022-09-27T16:46:09;12.88;;;5.47;;
41921;SDS011;27609;51.002;5.354;2022-09-27T16:48:38;7.72;;;2.50;;
41921;SDS011;27609;51.002;5.354;2022-09-27T16:51:05;7.97;;;3.85;;
41921;SDS011;27609;51.002;5.354;2022-09-27T16:53:52;7.53;;;3.45;;
41921;SDS011;27609;51.002;5.354;2022-09-27T16:56:18;4.45;;;2.10;;
41921;SDS011;27609;51.002;5.354;2022-09-27T16:58:45;5.38;;;2.47;;
41921;SDS011;27609;51.002;5.354;2022-09-27T17:01:15;6.57;;;2.70;;
41921;SDS011;27609;51.002;5.354;2022-09-27T17:03:41;6.65;;;2.70;;
41921;SDS011;27609;51.002;5.354;2022-09-27T17:06:08;7.25;;;2.58;;
41921;SDS011;27609;51.002;5.354;2022-09-27T17:08:34;10.13;;;2.80;;
41921;SDS011;27609;51.002;5.354;2022-09-27T17:11:00;7.47;;;2.95;;
41921;SDS011;27609;51.002;5.354;2022-09-27T17:13:26;6.93;;;3.75;;
41921;SDS011;27609;51.002;5.354;2022-09-27T17:15:51;3.42;;;2.75;;
41921;SDS011;27609;51.002;5.354;2022-09-27T17:18:18;7.63;;;2.90;;
41921;SDS011;27609;51.002;5.354;2022-09-27T17:20:43;3.35;;;2.70;;
41921;SDS011;27609;51.002;5.354;2022-09-27T17:23:09;10.32;;;3.20;;
41921;SDS011;27609;51.002;5.354;2022-09-27T17:25:35;5.30;;;3.28;;
41921;SDS011;27609;51.002;5.354;2022-09-27T17:28:01;7.28;;;3.78;;
41921;SDS011;27609;51.002;5.354;2022-09-27T17:30:26;11.75;;;3.70;;
41921;SDS011;27609;51.002;5.354;2022-09-27T17:32:52;6.38;;;4.07;;
41921;SDS011;27609;51.002;5.354;2022-09-27T17:35:18;5.20;;;3.75;;
41921;SDS011;27609;51.002;5.354;2022-09-27T17:37:43;14.32;;;5.05;;
41921;SDS011;27609;51.002;5.354;2022-09-27T17:40:10;7.28;;;4.38;;
41921;SDS011;27609;51.002;5.354;2022-09-27T17:42:36;11.00;;;4.95;;
41921;SDS011;27609;51.002;5.354;2022-09-27T17:45:02;13.35;;;5.68;;
41921;SDS011;27609;51.002;5.354;2022-09-27T17:47:28;10.05;;;4.28;;
41921;SDS011;27609;51.002;5.354;2022-09-27T17:50:12;11.35;;;4.35;;
41921;SDS011;27609;51.002;5.354;2022-09-27T17:52:50;9.18;;;4.35;;
41921;SDS011;27609;51.002;5.354;2022-09-27T17:55:17;9.00;;;4.57;;
41921;SDS011;27609;51.002;5.354;2022-09-27T17:57:45;6.55;;;4.60;;
41921;SDS011;27609;51.002;5.354;2022-09-27T18:00:12;7.72;;;5.60;;
41921;SDS011;27609;51.002;5.354;2022-09-27T18:02:38;12.55;;;6.53;;
41921;SDS011;27609;51.002;5.354;2022-09-27T18:05:04;9.77;;;4.72;;
41921;SDS011;27609;51.002;5.354;2022-09-27T18:07:31;9.73;;;4.60;;
41921;SDS011;27609;51.002;5.354;2022-09-27T18:09:57;10.30;;;5.10;;
41921;SDS011;27609;51.002;5.354;2022-09-27T18:12:23;10.32;;;5.13;;
41921;SDS011;27609;51.002;5.354;2022-09-27T18:14:56;11.82;;;5.38;;
41921;SDS011;27609;51.002;5.354;2022-09-27T18:17:22;13.88;;;5.68;;
41921;SDS011;27609;51.002;5.354;2022-09-27T18:19:48;8.32;;;4.95;;
41921;SDS011;27609;51.002;5.354;2022-09-27T18:22:14;6.70;;;4.50;;
41921;SDS011;27609;51.002;5.354;2022-09-27T18:24:39;13.02;;;6.13;;
41921;SDS011;27609;51.002;5.354;2022-09-27T18:27:05;13.52;;;6.80;;
41921;SDS011;27609;51.002;5.354;2022-09-27T18:29:31;10.77;;;6.55;;
41921;SDS011;27609;51.002;5.354;2022-09-27T18:31:58;9.95;;;7.50;;